KRHV/RHV METAR and TAF weather

Enter ICAO airport designator
Station Type Date Time Source
KRHV METAR 2020/04/05 04:47 UTC NOAA

KRHV 050447Z 13007KT 10SM BKN030 13/10 A2979 RMK LAST


Station Type Date Time Source
KRHV Decoded METAR 2020/04/05 04:47 UTC NOAA

San Jose / Reid / Hillv, CA, United States (KRHV) 37-20N 121-49W
Apr 05, 2020 - 12:47 AM EDT / 2020.04.05 0447 UTC
Wind: from the SE (130 degrees) at 8 MPH (7 KT):0
Visibility: 10 mile(s):0
Sky conditions: mostly cloudy
Temperature: 55 F (13 C)
Dew Point: 50 F (10 C)
Relative Humidity: 81%
Pressure (altimeter): 29.79 in. Hg (1008 hPa)
ob: KRHV 050447Z 13007KT 10SM BKN030 13/10 A2979 RMK LAST
cycle: 5

Station Type Date Time Source
KRHV TAF UTC NOAA

Error!

Example: see airport list